sensor_id;sensor_type;location;lat;lon;timestamp;temperature;humidity
70830;SHT30;58451;51.550;7.208;2022-12-05T00:00:47;3.06;82.43
70830;SHT30;58451;51.550;7.208;2022-12-05T00:02:18;3.05;82.47
70830;SHT30;58451;51.550;7.208;2022-12-05T00:03:50;3.04;82.47
70830;SHT30;58451;51.550;7.208;2022-12-05T00:05:25;3.04;82.50
70830;SHT30;58451;51.550;7.208;2022-12-05T00:06:56;3.04;82.43
70830;SHT30;58451;51.550;7.208;2022-12-05T00:08:28;3.05;82.47
70830;SHT30;58451;51.550;7.208;2022-12-05T00:10:02;3.05;82.50
70830;SHT30;58451;51.550;7.208;2022-12-05T00:11:38;3.05;82.48
70830;SHT30;58451;51.550;7.208;2022-12-05T00:13:13;3.05;82.48
70830;SHT30;58451;51.550;7.208;2022-12-05T00:14:44;3.06;82.50
70830;SHT30;58451;51.550;7.208;2022-12-05T00:16:16;3.06;82.50
70830;SHT30;58451;51.550;7.208;2022-12-05T00:17:51;3.04;82.50
70830;SHT30;58451;51.550;7.208;2022-12-05T00:19:22;3.05;82.60
70830;SHT30;58451;51.550;7.208;2022-12-05T00:20:53;3.05;82.55
70830;SHT30;58451;51.550;7.208;2022-12-05T00:22:24;3.05;82.58
70830;SHT30;58451;51.550;7.208;2022-12-05T00:23:59;3.05;82.60
70830;SHT30;58451;51.550;7.208;2022-12-05T00:25:34;3.04;82.60
70830;SHT30;58451;51.550;7.208;2022-12-05T00:27:06;3.07;82.60
70830;SHT30;58451;51.550;7.208;2022-12-05T00:28:37;3.06;82.68
70830;SHT30;58451;51.550;7.208;2022-12-05T00:30:10;3.05;82.70
70830;SHT30;58451;51.550;7.208;2022-12-05T00:31:41;3.04;82.72
70830;SHT30;58451;51.550;7.208;2022-12-05T00:33:13;3.03;82.72
70830;SHT30;58451;51.550;7.208;2022-12-05T00:34:44;3.03;82.77
70830;SHT30;58451;51.550;7.208;2022-12-05T00:36:16;3.02;82.78
70830;SHT30;58451;51.550;7.208;2022-12-05T00:37:55;3.02;82.80
70830;SHT30;58451;51.550;7.208;2022-12-05T00:39:26;3.02;82.82
70830;SHT30;58451;51.550;7.208;2022-12-05T00:41:03;3.03;82.83
70830;SHT30;58451;51.550;7.208;2022-12-05T00:42:41;3.02;82.90
70830;SHT30;58451;51.550;7.208;2022-12-05T00:44:12;3.01;82.90
70830;SHT30;58451;51.550;7.208;2022-12-05T00:45:45;3.02;82.92
70830;SHT30;58451;51.550;7.208;2022-12-05T00:47:17;3.03;82.97
70830;SHT30;58451;51.550;7.208;2022-12-05T00:48:48;3.03;82.92
70830;SHT30;58451;51.550;7.208;2022-12-05T00:50:22;3.04;82.93
70830;SHT30;58451;51.550;7.208;2022-12-05T00:51:53;3.06;82.95
70830;SHT30;58451;51.550;7.208;2022-12-05T00:53:25;3.06;83.00
70830;SHT30;58451;51.550;7.208;2022-12-05T00:54:56;3.07;82.93
70830;SHT30;58451;51.550;7.208;2022-12-05T00:56:28;3.07;83.03
70830;SHT30;58451;51.550;7.208;2022-12-05T00:58:02;3.08;83.03
70830;SHT30;58451;51.550;7.208;2022-12-05T00:59:33;3.07;83.10
70830;SHT30;58451;51.550;7.208;2022-12-05T01:01:09;3.07;83.13
70830;SHT30;58451;51.550;7.208;2022-12-05T01:02:54;3.05;83.18
70830;SHT30;58451;51.550;7.208;2022-12-05T01:04:26;3.05;83.23
70830;SHT30;58451;51.550;7.208;2022-12-05T01:05:58;3.04;83.22
70830;SHT30;58451;51.550;7.208;2022-12-05T01:07:31;3.03;83.28
70830;SHT30;58451;51.550;7.208;2022-12-05T01:09:03;3.02;83.40
70830;SHT30;58451;51.550;7.208;2022-12-05T01:10:36;3.02;83.43
70830;SHT30;58451;51.550;7.208;2022-12-05T01:12:08;3.01;83.43
70830;SHT30;58451;51.550;7.208;2022-12-05T01:13:41;3.00;83.45
70830;SHT30;58451;51.550;7.208;2022-12-05T01:15:14;3.00;83.48
70830;SHT30;58451;51.550;7.208;2022-12-05T01:16:46;3.00;83.50
70830;SHT30;58451;51.550;7.208;2022-12-05T01:18:22;3.00;83.53
70830;SHT30;58451;51.550;7.208;2022-12-05T01:19:55;3.01;83.53
70830;SHT30;58451;51.550;7.208;2022-12-05T01:21:28;2.99;83.60
70830;SHT30;58451;51.550;7.208;2022-12-05T01:23:00;3.00;83.65
70830;SHT30;58451;51.550;7.208;2022-12-05T01:24:31;2.99;83.65
70830;SHT30;58451;51.550;7.208;2022-12-05T01:26:04;2.99;83.77
70830;SHT30;58451;51.550;7.208;2022-12-05T01:27:39;2.98;83.82
70830;SHT30;58451;51.550;7.208;2022-12-05T01:29:12;2.98;83.98
70830;SHT30;58451;51.550;7.208;2022-12-05T01:30:47;2.96;84.03
70830;SHT30;58451;51.550;7.208;2022-12-05T01:32:21;2.93;84.03
70830;SHT30;58451;51.550;7.208;2022-12-05T01:33:55;2.93;84.03
70830;SHT30;58451;51.550;7.208;2022-12-05T01:35:32;2.92;84.07
70830;SHT30;58451;51.550;7.208;2022-12-05T01:37:07;2.92;84.03
70830;SHT30;58451;51.550;7.208;2022-12-05T01:38:39;2.93;84.07
70830;SHT30;58451;51.550;7.208;2022-12-05T01:40:12;2.92;84.13
70830;SHT30;58451;51.550;7.208;2022-12-05T01:41:45;2.93;84.17
70830;SHT30;58451;51.550;7.208;2022-12-05T01:43:19;2.93;84.23
70830;SHT30;58451;51.550;7.208;2022-12-05T01:44:58;2.93;84.30
70830;SHT30;58451;51.550;7.208;2022-12-05T01:46:47;2.92;84.27
70830;SHT30;58451;51.550;7.208;2022-12-05T01:48:26;2.92;84.23
70830;SHT30;58451;51.550;7.208;2022-12-05T01:50:02;2.92;84.25
70830;SHT30;58451;51.550;7.208;2022-12-05T01:51:36;2.91;84.30
70830;SHT30;58451;51.550;7.208;2022-12-05T01:53:14;2.92;84.35
70830;SHT30;58451;51.550;7.208;2022-12-05T01:54:49;2.92;84.30
70830;SHT30;58451;51.550;7.208;2022-12-05T01:56:31;2.94;84.33
70830;SHT30;58451;51.550;7.208;2022-12-05T01:58:05;2.94;84.33
70830;SHT30;58451;51.550;7.208;2022-12-05T01:59:46;2.95;84.33
70830;SHT30;58451;51.550;7.208;2022-12-05T02:01:28;2.95;84.32
70830;SHT30;58451;51.550;7.208;2022-12-05T02:03:03;2.96;84.40
70830;SHT30;58451;51.550;7.208;2022-12-05T02:04:58;2.96;84.42
70830;SHT30;58451;51.550;7.208;2022-12-05T02:06:39;2.97;84.33
70830;SHT30;58451;51.550;7.208;2022-12-05T02:08:15;2.98;84.42
70830;SHT30;58451;51.550;7.208;2022-12-05T02:09:48;2.98;84.60
70830;SHT30;58451;51.550;7.208;2022-12-05T02:11:25;2.98;84.62
70830;SHT30;58451;51.550;7.208;2022-12-05T02:13:10;2.96;84.73
70830;SHT30;58451;51.550;7.208;2022-12-05T02:20:41;2.93;84.85
70830;SHT30;58451;51.550;7.208;2022-12-05T02:23:06;2.91;85.00
70830;SHT30;58451;51.550;7.208;2022-12-05T02:27:12;2.90;85.00
70830;SHT30;58451;51.550;7.208;2022-12-05T02:31:58;2.88;85.02
70830;SHT30;58451;51.550;7.208;2022-12-05T02:34:15;2.89;85.03
70830;SHT30;58451;51.550;7.208;2022-12-05T02:44:40;2.94;84.95
70830;SHT30;58451;51.550;7.208;2022-12-05T02:46:18;2.94;85.02
70830;SHT30;58451;51.550;7.208;2022-12-05T02:47:55;2.94;85.02
70830;SHT30;58451;51.550;7.208;2022-12-05T02:49:30;2.95;85.10
70830;SHT30;58451;51.550;7.208;2022-12-05T02:51:06;2.93;85.18
70830;SHT30;58451;51.550;7.208;2022-12-05T02:52:41;2.93;85.10
70830;SHT30;58451;51.550;7.208;2022-12-05T02:54:20;2.94;85.12
70830;SHT30;58451;51.550;7.208;2022-12-05T02:56:03;2.94;85.27
70830;SHT30;58451;51.550;7.208;2022-12-05T02:57:36;2.93;85.17
70830;SHT30;58451;51.550;7.208;2022-12-05T02:59:09;2.95;85.05
70830;SHT30;58451;51.550;7.208;2022-12-05T03:00:42;2.96;85.08
70830;SHT30;58451;51.550;7.208;2022-12-05T03:02:30;2.98;85.08
70830;SHT30;58451;51.550;7.208;2022-12-05T03:04:09;2.99;85.00
70830;SHT30;58451;51.550;7.208;2022-12-05T03:07:30;3.02;85.02
70830;SHT30;58451;51.550;7.208;2022-12-05T03:09:19;3.03;85.13
70830;SHT30;58451;51.550;7.208;2022-12-05T03:11:07;3.02;85.10
70830;SHT30;58451;51.550;7.208;2022-12-05T03:12:43;3.01;85.08
70830;SHT30;58451;51.550;7.208;2022-12-05T03:14:24;3.02;85.12
70830;SHT30;58451;51.550;7.208;2022-12-05T03:16:10;3.02;85.13
70830;SHT30;58451;51.550;7.208;2022-12-05T03:21:48;3.01;85.15
70830;SHT30;58451;51.550;7.208;2022-12-05T03:23:38;3.02;85.20
70830;SHT30;58451;51.550;7.208;2022-12-05T03:25:21;3.03;85.25
70830;SHT30;58451;51.550;7.208;2022-12-05T03:27:16;3.02;85.15
70830;SHT30;58451;51.550;7.208;2022-12-05T03:31:38;3.04;85.17
70830;SHT30;58451;51.550;7.208;2022-12-05T03:33:56;3.03;85.08
70830;SHT30;58451;51.550;7.208;2022-12-05T03:39:27;3.05;85.10
70830;SHT30;58451;51.550;7.208;2022-12-05T03:41:08;3.05;85.12
70830;SHT30;58451;51.550;7.208;2022-12-05T03:43:09;3.05;85.12
70830;SHT30;58451;51.550;7.208;2022-12-05T03:45:11;3.05;85.10
70830;SHT30;58451;51.550;7.208;2022-12-05T03:48:59;3.07;85.13
70830;SHT30;58451;51.550;7.208;2022-12-05T03:50:33;3.07;85.12
70830;SHT30;58451;51.550;7.208;2022-12-05T03:52:11;3.07;85.12
70830;SHT30;58451;51.550;7.208;2022-12-05T03:53:58;3.09;85.10
70830;SHT30;58451;51.550;7.208;2022-12-05T03:55:39;3.08;85.07
70830;SHT30;58451;51.550;7.208;2022-12-05T03:57:30;3.10;85.05
70830;SHT30;58451;51.550;7.208;2022-12-05T03:59:17;3.12;85.03
70830;SHT30;58451;51.550;7.208;2022-12-05T04:00:59;3.13;85.02
70830;SHT30;58451;51.550;7.208;2022-12-05T04:04:51;3.15;85.00
70830;SHT30;58451;51.550;7.208;2022-12-05T04:06:40;3.14;85.00
70830;SHT30;58451;51.550;7.208;2022-12-05T04:08:22;3.16;85.02
70830;SHT30;58451;51.550;7.208;2022-12-05T04:10:02;3.17;84.98
70830;SHT30;58451;51.550;7.208;2022-12-05T04:11:42;3.17;85.00
70830;SHT30;58451;51.550;7.208;2022-12-05T04:13:25;3.17;85.00
70830;SHT30;58451;51.550;7.208;2022-12-05T04:15:07;3.18;84.97
70830;SHT30;58451;51.550;7.208;2022-12-05T04:16:53;3.19;85.02
70830;SHT30;58451;51.550;7.208;2022-12-05T04:18:35;3.18;84.98
70830;SHT30;58451;51.550;7.208;2022-12-05T04:20:16;3.19;84.98
70830;SHT30;58451;51.550;7.208;2022-12-05T04:22:12;3.19;85.00
70830;SHT30;58451;51.550;7.208;2022-12-05T04:23:44;3.19;85.00
70830;SHT30;58451;51.550;7.208;2022-12-05T04:25:47;3.18;84.98
70830;SHT30;58451;51.550;7.208;2022-12-05T04:29:43;3.20;84.97
70830;SHT30;58451;51.550;7.208;2022-12-05T04:31:57;3.19;84.90
70830;SHT30;58451;51.550;7.208;2022-12-05T04:35:34;3.18;84.90
70830;SHT30;58451;51.550;7.208;2022-12-05T04:37:45;3.18;84.88
70830;SHT30;58451;51.550;7.208;2022-12-05T04:39:32;3.20;84.88
70830;SHT30;58451;51.550;7.208;2022-12-05T04:41:23;3.20;84.87
70830;SHT30;58451;51.550;7.208;2022-12-05T04:43:07;3.20;84.88
70830;SHT30;58451;51.550;7.208;2022-12-05T04:44:43;3.22;84.88
70830;SHT30;58451;51.550;7.208;2022-12-05T04:46:23;3.22;84.90
70830;SHT30;58451;51.550;7.208;2022-12-05T04:48:00;3.20;84.90
70830;SHT30;58451;51.550;7.208;2022-12-05T04:49:38;3.21;84.87
70830;SHT30;58451;51.550;7.208;2022-12-05T04:51:22;3.21;84.93
70830;SHT30;58451;51.550;7.208;2022-12-05T04:52:59;3.20;84.90
70830;SHT30;58451;51.550;7.208;2022-12-05T04:54:42;3.19;84.92
70830;SHT30;58451;51.550;7.208;2022-12-05T04:56:20;3.18;84.90
70830;SHT30;58451;51.550;7.208;2022-12-05T04:59:52;3.17;84.98
70830;SHT30;58451;51.550;7.208;2022-12-05T05:01:27;3.14;84.97
70830;SHT30;58451;51.550;7.208;2022-12-05T05:03:24;3.13;84.95
70830;SHT30;58451;51.550;7.208;2022-12-05T05:05:15;3.14;84.90
70830;SHT30;58451;51.550;7.208;2022-12-05T05:06:52;3.14;84.95
70830;SHT30;58451;51.550;7.208;2022-12-05T05:08:24;3.14;84.93
70830;SHT30;58451;51.550;7.208;2022-12-05T05:09:59;3.15;85.00
70830;SHT30;58451;51.550;7.208;2022-12-05T05:11:33;3.16;85.02
70830;SHT30;58451;51.550;7.208;2022-12-05T05:13:06;3.15;85.00
70830;SHT30;58451;51.550;7.208;2022-12-05T05:14:38;3.13;85.03
70830;SHT30;58451;51.550;7.208;2022-12-05T05:16:17;3.14;85.05
70830;SHT30;58451;51.550;7.208;2022-12-05T05:17:58;3.13;85.08
70830;SHT30;58451;51.550;7.208;2022-12-05T05:19:30;3.11;85.03
70830;SHT30;58451;51.550;7.208;2022-12-05T05:21:04;3.11;85.03
70830;SHT30;58451;51.550;7.208;2022-12-05T05:22:36;3.13;85.02
70830;SHT30;58451;51.550;7.208;2022-12-05T05:24:09;3.13;85.05
70830;SHT30;58451;51.550;7.208;2022-12-05T05:25:42;3.13;85.08
70830;SHT30;58451;51.550;7.208;2022-12-05T05:27:14;3.14;85.12
70830;SHT30;58451;51.550;7.208;2022-12-05T05:28:48;3.13;85.05
70830;SHT30;58451;51.550;7.208;2022-12-05T05:30:21;3.14;85.05
70830;SHT30;58451;51.550;7.208;2022-12-05T05:31:55;3.14;85.08
70830;SHT30;58451;51.550;7.208;2022-12-05T05:33:27;3.13;85.07
70830;SHT30;58451;51.550;7.208;2022-12-05T05:34:59;3.14;85.10
70830;SHT30;58451;51.550;7.208;2022-12-05T05:36:31;3.14;85.12
70830;SHT30;58451;51.550;7.208;2022-12-05T05:38:03;3.13;85.12
70830;SHT30;58451;51.550;7.208;2022-12-05T05:39:35;3.12;85.20
70830;SHT30;58451;51.550;7.208;2022-12-05T05:41:12;3.08;85.15
70830;SHT30;58451;51.550;7.208;2022-12-05T05:42:48;3.07;85.20
70830;SHT30;58451;51.550;7.208;2022-12-05T05:44:21;3.06;85.20
70830;SHT30;58451;51.550;7.208;2022-12-05T05:45:53;3.05;85.17
70830;SHT30;58451;51.550;7.208;2022-12-05T05:47:25;3.04;85.12
70830;SHT30;58451;51.550;7.208;2022-12-05T05:48:57;3.03;85.12
70830;SHT30;58451;51.550;7.208;2022-12-05T05:50:30;3.04;85.12
70830;SHT30;58451;51.550;7.208;2022-12-05T05:52:03;3.04;85.10
70830;SHT30;58451;51.550;7.208;2022-12-05T05:53:35;3.04;85.15
70830;SHT30;58451;51.550;7.208;2022-12-05T05:55:10;3.04;85.12
70830;SHT30;58451;51.550;7.208;2022-12-05T05:56:42;3.04;85.13
70830;SHT30;58451;51.550;7.208;2022-12-05T05:58:17;3.03;85.12
70830;SHT30;58451;51.550;7.208;2022-12-05T05:59:52;3.01;85.18
70830;SHT30;58451;51.550;7.208;2022-12-05T06:01:23;3.00;85.18
70830;SHT30;58451;51.550;7.208;2022-12-05T06:02:56;2.99;85.20
70830;SHT30;58451;51.550;7.208;2022-12-05T06:04:30;2.98;85.18
70830;SHT30;58451;51.550;7.208;2022-12-05T06:06:10;2.97;85.15
70830;SHT30;58451;51.550;7.208;2022-12-05T06:07:45;2.96;85.20
70830;SHT30;58451;51.550;7.208;2022-12-05T06:09:17;2.95;85.27
70830;SHT30;58451;51.550;7.208;2022-12-05T06:10:51;2.93;85.22
70830;SHT30;58451;51.550;7.208;2022-12-05T06:12:24;2.92;85.23
70830;SHT30;58451;51.550;7.208;2022-12-05T06:13:57;2.91;85.22
70830;SHT30;58451;51.550;7.208;2022-12-05T06:15:33;2.91;85.20
70830;SHT30;58451;51.550;7.208;2022-12-05T06:17:07;2.89;85.22
70830;SHT30;58451;51.550;7.208;2022-12-05T06:18:39;2.89;85.25
70830;SHT30;58451;51.550;7.208;2022-12-05T06:20:14;2.88;85.22
70830;SHT30;58451;51.550;7.208;2022-12-05T06:21:47;2.88;85.23
70830;SHT30;58451;51.550;7.208;2022-12-05T06:23:22;2.86;85.25
70830;SHT30;58451;51.550;7.208;2022-12-05T06:24:57;2.86;85.27
70830;SHT30;58451;51.550;7.208;2022-12-05T06:26:29;2.85;85.30
70830;SHT30;58451;51.550;7.208;2022-12-05T06:28:02;2.85;85.30
70830;SHT30;58451;51.550;7.208;2022-12-05T06:29:34;2.85;85.35
70830;SHT30;58451;51.550;7.208;2022-12-05T06:31:07;2.84;85.35
70830;SHT30;58451;51.550;7.208;2022-12-05T06:32:48;2.83;85.33
70830;SHT30;58451;51.550;7.208;2022-12-05T06:34:21;2.81;85.33
70830;SHT30;58451;51.550;7.208;2022-12-05T06:36:04;2.81;85.37
70830;SHT30;58451;51.550;7.208;2022-12-05T06:37:49;2.81;85.40
70830;SHT30;58451;51.550;7.208;2022-12-05T06:39:21;2.80;85.43
70830;SHT30;58451;51.550;7.208;2022-12-05T06:40:53;2.78;85.33
70830;SHT30;58451;51.550;7.208;2022-12-05T06:42:26;2.80;85.35
70830;SHT30;58451;51.550;7.208;2022-12-05T06:43:59;2.81;85.38
70830;SHT30;58451;51.550;7.208;2022-12-05T06:45:33;2.81;85.40
70830;SHT30;58451;51.550;7.208;2022-12-05T06:47:05;2.80;85.35
70830;SHT30;58451;51.550;7.208;2022-12-05T06:48:37;2.80;85.35
70830;SHT30;58451;51.550;7.208;2022-12-05T06:50:10;2.81;85.37
70830;SHT30;58451;51.550;7.208;2022-12-05T06:51:43;2.81;85.37
70830;SHT30;58451;51.550;7.208;2022-12-05T06:53:15;2.80;85.37
70830;SHT30;58451;51.550;7.208;2022-12-05T06:54:47;2.80;85.40
70830;SHT30;58451;51.550;7.208;2022-12-05T06:56:19;2.78;85.42
70830;SHT30;58451;51.550;7.208;2022-12-05T06:57:51;2.76;85.40
70830;SHT30;58451;51.550;7.208;2022-12-05T06:59:23;2.73;85.40
70830;SHT30;58451;51.550;7.208;2022-12-05T07:00:55;2.72;85.37
70830;SHT30;58451;51.550;7.208;2022-12-05T07:02:51;2.72;85.40
70830;SHT30;58451;51.550;7.208;2022-12-05T07:04:25;2.71;85.38
70830;SHT30;58451;51.550;7.208;2022-12-05T07:06:01;2.67;85.33
70830;SHT30;58451;51.550;7.208;2022-12-05T07:07:36;2.65;85.32
70830;SHT30;58451;51.550;7.208;2022-12-05T07:09:09;2.62;85.40
70830;SHT30;58451;51.550;7.208;2022-12-05T07:10:41;2.61;85.37
70830;SHT30;58451;51.550;7.208;2022-12-05T07:12:23;2.57;85.33
70830;SHT30;58451;51.550;7.208;2022-12-05T07:13:56;2.55;85.33
70830;SHT30;58451;51.550;7.208;2022-12-05T07:15:28;2.52;85.33
70830;SHT30;58451;51.550;7.208;2022-12-05T07:17:02;2.48;85.30
70830;SHT30;58451;51.550;7.208;2022-12-05T07:18:34;2.43;85.27
70830;SHT30;58451;51.550;7.208;2022-12-05T07:20:07;2.39;85.25
70830;SHT30;58451;51.550;7.208;2022-12-05T07:21:41;2.37;85.23
70830;SHT30;58451;51.550;7.208;2022-12-05T07:23:13;2.36;85.23
70830;SHT30;58451;51.550;7.208;2022-12-05T07:24:45;2.36;85.23
70830;SHT30;58451;51.550;7.208;2022-12-05T07:27:59;2.32;85.17
70830;SHT30;58451;51.550;7.208;2022-12-05T07:29:31;2.30;85.13
70830;SHT30;58451;51.550;7.208;2022-12-05T07:31:04;2.28;85.12
70830;SHT30;58451;51.550;7.208;2022-12-05T07:46:23;2.09;84.98
70830;SHT30;58451;51.550;7.208;2022-12-05T07:48:03;2.07;85.00
70830;SHT30;58451;51.550;7.208;2022-12-05T07:49:35;2.09;85.02
70830;SHT30;58451;51.550;7.208;2022-12-05T07:51:07;2.10;85.05
70830;SHT30;58451;51.550;7.208;2022-12-05T07:52:41;2.11;85.03
70830;SHT30;58451;51.550;7.208;2022-12-05T07:54:12;2.13;85.02
70830;SHT30;58451;51.550;7.208;2022-12-05T07:55:44;2.13;85.03
70830;SHT30;58451;51.550;7.208;2022-12-05T07:57:16;2.15;85.05
70830;SHT30;58451;51.550;7.208;2022-12-05T07:58:48;2.15;85.12
70830;SHT30;58451;51.550;7.208;2022-12-05T08:00:22;2.16;85.05
70830;SHT30;58451;51.550;7.208;2022-12-05T08:01:54;2.17;85.10
70830;SHT30;58451;51.550;7.208;2022-12-05T08:03:26;2.18;85.07
70830;SHT30;58451;51.550;7.208;2022-12-05T08:14:14;2.16;84.95
70830;SHT30;58451;51.550;7.208;2022-12-05T08:15:46;2.17;84.93
70830;SHT30;58451;51.550;7.208;2022-12-05T08:17:19;2.19;84.93
70830;SHT30;58451;51.550;7.208;2022-12-05T08:18:54;2.21;84.98
70830;SHT30;58451;51.550;7.208;2022-12-05T08:20:41;2.22;84.95
70830;SHT30;58451;51.550;7.208;2022-12-05T08:22:13;2.25;84.98
70830;SHT30;58451;51.550;7.208;2022-12-05T08:23:45;2.27;84.93
70830;SHT30;58451;51.550;7.208;2022-12-05T08:25:19;2.29;84.95
70830;SHT30;58451;51.550;7.208;2022-12-05T08:26:52;2.31;84.93
70830;SHT30;58451;51.550;7.208;2022-12-05T08:28:23;2.33;84.93
70830;SHT30;58451;51.550;7.208;2022-12-05T08:29:55;2.34;84.90
70830;SHT30;58451;51.550;7.208;2022-12-05T08:31:29;2.36;84.90
70830;SHT30;58451;51.550;7.208;2022-12-05T08:33:04;2.38;84.85
70830;SHT30;58451;51.550;7.208;2022-12-05T08:34:35;2.41;84.83
70830;SHT30;58451;51.550;7.208;2022-12-05T08:36:09;2.46;84.83
70830;SHT30;58451;51.550;7.208;2022-12-05T08:37:46;2.50;84.83
70830;SHT30;58451;51.550;7.208;2022-12-05T08:39:19;2.52;84.82
70830;SHT30;58451;51.550;7.208;2022-12-05T08:40:51;2.54;84.80
70830;SHT30;58451;51.550;7.208;2022-12-05T08:42:23;2.54;84.75
70830;SHT30;58451;51.550;7.208;2022-12-05T08:44:01;2.54;84.75
70830;SHT30;58451;51.550;7.208;2022-12-05T08:45:36;2.55;84.78
70830;SHT30;58451;51.550;7.208;2022-12-05T08:47:08;2.58;84.78
70830;SHT30;58451;51.550;7.208;2022-12-05T08:48:43;2.60;84.77
70830;SHT30;58451;51.550;7.208;2022-12-05T08:50:15;2.59;84.73
70830;SHT30;58451;51.550;7.208;2022-12-05T08:51:47;2.60;84.75
70830;SHT30;58451;51.550;7.208;2022-12-05T08:53:21;2.62;84.73
70830;SHT30;58451;51.550;7.208;2022-12-05T08:54:53;2.65;84.72
70830;SHT30;58451;51.550;7.208;2022-12-05T08:56:25;2.68;84.72
70830;SHT30;58451;51.550;7.208;2022-12-05T08:57:58;2.71;84.70
70830;SHT30;58451;51.550;7.208;2022-12-05T08:59:30;2.74;84.68
70830;SHT30;58451;51.550;7.208;2022-12-05T09:01:05;2.76;84.68
70830;SHT30;58451;51.550;7.208;2022-12-05T09:02:49;2.77;84.60
70830;SHT30;58451;51.550;7.208;2022-12-05T09:04:22;2.75;84.55
70830;SHT30;58451;51.550;7.208;2022-12-05T09:05:54;2.74;84.52
70830;SHT30;58451;51.550;7.208;2022-12-05T09:07:37;2.74;84.48
70830;SHT30;58451;51.550;7.208;2022-12-05T09:09:12;2.73;84.47
70830;SHT30;58451;51.550;7.208;2022-12-05T09:10:44;2.75;84.50
70830;SHT30;58451;51.550;7.208;2022-12-05T09:12:16;2.79;84.45
70830;SHT30;58451;51.550;7.208;2022-12-05T09:13:48;2.82;84.43
70830;SHT30;58451;51.550;7.208;2022-12-05T09:15:23;2.85;84.40
70830;SHT30;58451;51.550;7.208;2022-12-05T09:16:56;2.89;84.40
70830;SHT30;58451;51.550;7.208;2022-12-05T09:18:28;2.92;84.40
70830;SHT30;58451;51.550;7.208;2022-12-05T09:20:01;2.97;84.40
70830;SHT30;58451;51.550;7.208;2022-12-05T09:21:35;3.01;84.40
70830;SHT30;58451;51.550;7.208;2022-12-05T09:23:07;3.04;84.37
70830;SHT30;58451;51.550;7.208;2022-12-05T09:24:49;3.05;84.30
70830;SHT30;58451;51.550;7.208;2022-12-05T09:26:23;3.10;84.32
70830;SHT30;58451;51.550;7.208;2022-12-05T09:27:58;3.12;84.25
70830;SHT30;58451;51.550;7.208;2022-12-05T09:29:32;3.15;84.12
70830;SHT30;58451;51.550;7.208;2022-12-05T09:31:05;3.19;84.10
70830;SHT30;58451;51.550;7.208;2022-12-05T09:32:52;3.19;84.08
70830;SHT30;58451;51.550;7.208;2022-12-05T09:34:24;3.19;84.03
70830;SHT30;58451;51.550;7.208;2022-12-05T09:35:56;3.23;84.05
70830;SHT30;58451;51.550;7.208;2022-12-05T09:37:29;3.24;84.05
70830;SHT30;58451;51.550;7.208;2022-12-05T09:39:10;3.23;83.98
70830;SHT30;58451;51.550;7.208;2022-12-05T09:40:45;3.22;84.00
70830;SHT30;58451;51.550;7.208;2022-12-05T09:42:42;3.21;83.95
70830;SHT30;58451;51.550;7.208;2022-12-05T09:44:43;3.20;83.97
70830;SHT30;58451;51.550;7.208;2022-12-05T09:48:36;3.19;83.92
70830;SHT30;58451;51.550;7.208;2022-12-05T09:51:56;3.16;83.88
70830;SHT30;58451;51.550;7.208;2022-12-05T09:53:32;3.16;83.90
70830;SHT30;58451;51.550;7.208;2022-12-05T09:55:14;3.17;83.88
70830;SHT30;58451;51.550;7.208;2022-12-05T09:56:49;3.19;83.90
70830;SHT30;58451;51.550;7.208;2022-12-05T10:00:22;3.22;83.80
70830;SHT30;58451;51.550;7.208;2022-12-05T10:03:41;3.23;83.63
70830;SHT30;58451;51.550;7.208;2022-12-05T10:05:24;3.22;83.60
70830;SHT30;58451;51.550;7.208;2022-12-05T10:11:27;3.30;83.60
70830;SHT30;58451;51.550;7.208;2022-12-05T10:15:25;3.30;83.42
70830;SHT30;58451;51.550;7.208;2022-12-05T10:17:35;3.29;83.43
70830;SHT30;58451;51.550;7.208;2022-12-05T10:19:12;3.30;83.40
70830;SHT30;58451;51.550;7.208;2022-12-05T10:21:02;3.31;83.35
70830;SHT30;58451;51.550;7.208;2022-12-05T10:22:55;3.28;83.28
70830;SHT30;58451;51.550;7.208;2022-12-05T10:24:37;3.27;83.25
70830;SHT30;58451;51.550;7.208;2022-12-05T10:26:15;3.27;83.27
70830;SHT30;58451;51.550;7.208;2022-12-05T10:29:29;3.30;83.30
70830;SHT30;58451;51.550;7.208;2022-12-05T10:31:10;3.33;83.30
70830;SHT30;58451;51.550;7.208;2022-12-05T10:32:53;3.35;83.28
70830;SHT30;58451;51.550;7.208;2022-12-05T10:34:39;3.38;83.22
70830;SHT30;58451;51.550;7.208;2022-12-05T10:36:14;3.40;83.22
70830;SHT30;58451;51.550;7.208;2022-12-05T10:37:47;3.41;83.13
70830;SHT30;58451;51.550;7.208;2022-12-05T10:39:23;3.41;83.13
70830;SHT30;58451;51.550;7.208;2022-12-05T10:40:57;3.41;83.15
70830;SHT30;58451;51.550;7.208;2022-12-05T10:42:35;3.43;83.13
70830;SHT30;58451;51.550;7.208;2022-12-05T10:44:12;3.41;83.13
70830;SHT30;58451;51.550;7.208;2022-12-05T10:45:45;3.41;83.15
70830;SHT30;58451;51.550;7.208;2022-12-05T10:47:18;3.41;83.20
70830;SHT30;58451;51.550;7.208;2022-12-05T10:48:52;3.40;83.13
70830;SHT30;58451;51.550;7.208;2022-12-05T10:50:32;3.41;83.20
70830;SHT30;58451;51.550;7.208;2022-12-05T10:52:10;3.44;83.20
70830;SHT30;58451;51.550;7.208;2022-12-05T10:53:48;3.45;83.13
70830;SHT30;58451;51.550;7.208;2022-12-05T10:55:21;3.46;83.00
70830;SHT30;58451;51.550;7.208;2022-12-05T10:57:01;3.47;83.02
70830;SHT30;58451;51.550;7.208;2022-12-05T10:59:00;3.44;83.00
70830;SHT30;58451;51.550;7.208;2022-12-05T11:00:32;3.44;83.00
70830;SHT30;58451;51.550;7.208;2022-12-05T11:02:11;3.43;82.97
70830;SHT30;58451;51.550;7.208;2022-12-05T11:04:06;3.41;83.00
70830;SHT30;58451;51.550;7.208;2022-12-05T11:06:13;3.42;83.00
70830;SHT30;58451;51.550;7.208;2022-12-05T11:07:57;3.40;82.88
70830;SHT30;58451;51.550;7.208;2022-12-05T11:09:31;3.38;82.92
70830;SHT30;58451;51.550;7.208;2022-12-05T11:11:28;3.41;82.97
70830;SHT30;58451;51.550;7.208;2022-12-05T11:13:13;3.41;82.98
70830;SHT30;58451;51.550;7.208;2022-12-05T11:16:35;3.36;82.85
70830;SHT30;58451;51.550;7.208;2022-12-05T11:18:21;3.36;82.90
70830;SHT30;58451;51.550;7.208;2022-12-05T11:20:31;3.32;82.80
70830;SHT30;58451;51.550;7.208;2022-12-05T11:21:57;3.29;82.83
70830;SHT30;58451;51.550;7.208;2022-12-05T11:23:29;3.27;82.87
70830;SHT30;58451;51.550;7.208;2022-12-05T11:25:22;3.27;82.80
70830;SHT30;58451;51.550;7.208;2022-12-05T11:28:46;3.24;82.83
70830;SHT30;58451;51.550;7.208;2022-12-05T11:30:19;3.22;82.90
70830;SHT30;58451;51.550;7.208;2022-12-05T11:31:56;3.20;82.90
70830;SHT30;58451;51.550;7.208;2022-12-05T11:33:32;3.20;82.90
70830;SHT30;58451;51.550;7.208;2022-12-05T11:37:00;3.19;82.88
70830;SHT30;58451;51.550;7.208;2022-12-05T11:38:45;3.18;82.80
70830;SHT30;58451;51.550;7.208;2022-12-05T11:40:25;3.17;82.75
70830;SHT30;58451;51.550;7.208;2022-12-05T11:44:25;3.14;82.80
70830;SHT30;58451;51.550;7.208;2022-12-05T11:49:58;3.07;82.72
70830;SHT30;58451;51.550;7.208;2022-12-05T11:52:14;3.02;82.53
70830;SHT30;58451;51.550;7.208;2022-12-05T11:56:53;2.95;82.57
70830;SHT30;58451;51.550;7.208;2022-12-05T12:00:32;2.91;82.70
70830;SHT30;58451;51.550;7.208;2022-12-05T12:04:33;2.87;82.62
70830;SHT30;58451;51.550;7.208;2022-12-05T12:11:15;2.84;82.80
70830;SHT30;58451;51.550;7.208;2022-12-05T12:19:34;2.90;82.68